Time;durP1;ratioP1;P1;durP2;ratioP2;P2;SDS_P1;SDS_P2;PMS_P1;PMS_P2;Temp;Humidity;BMP_temperature;BMP_pressure;BME280_temperature;BME280_humidity;BME280_pressure;Samples;Min_cycle;Max_cycle;Signal;HPM_P1;HPM_P2
2022/06/13 00:00:19;;;;;;;2.83;2.50;;;;;;;;;;4985172;28;20225;-57
2022/06/13 00:02:45;;;;;;;4.13;2.40;;;;;;;;;;4989140;28;20592;-57
2022/06/13 00:05:11;;;;;;;4.50;2.80;;;;;;;;;;4987513;28;20224;-57
2022/06/13 00:07:37;;;;;;;4.83;2.33;;;;;;;;;;4989959;28;20198;-57
2022/06/13 00:10:03;;;;;;;5.30;2.50;;;;;;;;;;4977708;28;20570;-57
2022/06/13 00:12:29;;;;;;;3.97;2.93;;;;;;;;;;4973844;28;20640;-58
2022/06/13 00:14:55;;;;;;;3.53;2.70;;;;;;;;;;4979453;28;20692;-57
2022/06/13 00:17:21;;;;;;;3.70;3.13;;;;;;;;;;4975685;28;20623;-58
2022/06/13 00:19:47;;;;;;;5.60;3.23;;;;;;;;;;4975054;28;20197;-57
2022/06/13 00:22:13;;;;;;;6.53;3.70;;;;;;;;;;4977603;28;20194;-57
2022/06/13 00:24:39;;;;;;;4.23;3.13;;;;;;;;;;4975997;28;20229;-56
2022/06/13 00:27:05;;;;;;;8.63;3.00;;;;;;;;;;4968948;28;20680;-57
2022/06/13 00:29:31;;;;;;;4.00;3.40;;;;;;;;;;4982668;28;20243;-58
2022/06/13 00:31:57;;;;;;;4.60;3.13;;;;;;;;;;4980252;28;20194;-58
2022/06/13 00:34:23;;;;;;;4.70;3.43;;;;;;;;;;4983606;28;20186;-58
2022/06/13 00:36:49;;;;;;;4.03;3.13;;;;;;;;;;4982869;28;20269;-57
2022/06/13 00:39:15;;;;;;;6.37;3.73;;;;;;;;;;4980230;28;20204;-56
2022/06/13 00:41:41;;;;;;;6.57;3.27;;;;;;;;;;4982913;28;20189;-57
2022/06/13 00:44:08;;;;;;;4.77;3.50;;;;;;;;;;4978134;28;20218;-57
2022/06/13 00:46:34;;;;;;;3.97;3.37;;;;;;;;;;4975678;28;20276;-57
2022/06/13 00:49:11;;;;;;;6.10;3.77;;;;;;;;;;4977983;28;20186;-58
2022/06/13 00:51:39;;;;;;;5.20;3.37;;;;;;;;;;4975105;28;20194;-57
2022/06/13 00:54:05;;;;;;;5.20;3.30;;;;;;;;;;4976711;28;20178;-57
2022/06/13 00:56:31;;;;;;;5.77;3.70;;;;;;;;;;4989514;28;20190;-56
2022/06/13 00:58:59;;;;;;;8.07;3.67;;;;;;;;;;4981661;28;20276;-57
2022/06/13 01:01:25;;;;;;;6.73;3.57;;;;;;;;;;4977420;28;20940;-58
2022/06/13 01:03:51;;;;;;;4.57;3.47;;;;;;;;;;4985974;28;20589;-57
2022/06/13 01:06:17;;;;;;;5.17;3.70;;;;;;;;;;4982444;28;20637;-57
2022/06/13 01:08:43;;;;;;;5.93;3.90;;;;;;;;;;4989341;28;20201;-57
2022/06/13 01:11:17;;;;;;;6.17;4.20;;;;;;;;;;4981998;28;20193;-57
2022/06/13 01:13:54;;;;;;;5.70;3.97;;;;;;;;;;4988143;28;20197;-58
2022/06/13 01:16:31;;;;;;;5.30;3.90;;;;;;;;;;4984762;28;20186;-58
2022/06/13 01:18:56;;;;;;;5.53;3.67;;;;;;;;;;4979104;28;22288;-57
2022/06/13 01:21:28;;;;;;;5.00;4.20;;;;;;;;;;4983666;28;20762;-58
2022/06/13 01:24:00;;;;;;;4.13;3.63;;;;;;;;;;4979979;28;20699;-57
2022/06/13 01:26:45;;;;;;;5.00;3.37;;;;;;;;;;4976559;28;20667;-57
2022/06/13 01:29:17;;;;;;;7.17;3.80;;;;;;;;;;4986397;28;20223;-56
2022/06/13 01:31:48;;;;;;;5.67;3.83;;;;;;;;;;4972110;28;20185;-57
2022/06/13 01:34:13;;;;;;;7.03;3.93;;;;;;;;;;4979619;28;20733;-57
2022/06/13 01:36:42;;;;;;;6.13;3.77;;;;;;;;;;4969249;28;20198;-57
2022/06/13 01:39:11;;;;;;;3.90;3.30;;;;;;;;;;4984331;28;20197;-57
2022/06/13 01:41:37;;;;;;;5.07;3.70;;;;;;;;;;4968726;28;20333;-57
2022/06/13 01:44:03;;;;;;;5.70;3.70;;;;;;;;;;4973133;28;20691;-56
2022/06/13 01:46:37;;;;;;;6.93;4.00;;;;;;;;;;4973113;28;20189;-57
2022/06/13 01:49:22;;;;;;;7.67;4.00;;;;;;;;;;4974763;28;20229;-57
2022/06/13 01:51:52;;;;;;;4.50;3.63;;;;;;;;;;4968841;28;20634;-57
2022/06/13 01:54:21;;;;;;;8.23;3.60;;;;;;;;;;4970414;28;20205;-57
2022/06/13 01:56:53;;;;;;;5.13;3.50;;;;;;;;;;4972450;28;20551;-57
2022/06/13 01:59:21;;;;;;;4.43;3.30;;;;;;;;;;4979235;28;20232;-57
2022/06/13 02:01:49;;;;;;;5.73;3.57;;;;;;;;;;4970352;28;20195;-57
2022/06/13 02:04:26;;;;;;;4.67;3.57;;;;;;;;;;4974637;28;20301;-57
2022/06/13 02:06:55;;;;;;;5.27;3.90;;;;;;;;;;4977422;28;20678;-58
2022/06/13 02:09:22;;;;;;;4.03;3.63;;;;;;;;;;4978708;28;20194;-57
2022/06/13 02:11:51;;;;;;;7.13;4.03;;;;;;;;;;4977395;28;20699;-57
2022/06/13 02:14:36;;;;;;;3.87;3.27;;;;;;;;;;4983684;28;20190;-57
2022/06/13 02:17:03;;;;;;;6.83;3.07;;;;;;;;;;4979581;28;20182;-57
2022/06/13 02:19:36;;;;;;;6.57;4.10;;;;;;;;;;4980190;28;20229;-57
2022/06/13 02:22:06;;;;;;;5.67;3.60;;;;;;;;;;4984239;28;20550;-56
2022/06/13 02:24:34;;;;;;;5.97;3.60;;;;;;;;;;4990076;28;20213;-57
2022/06/13 02:27:00;;;;;;;5.33;3.83;;;;;;;;;;4973967;28;20194;-57
2022/06/13 02:29:28;;;;;;;5.97;3.77;;;;;;;;;;4974931;28;20186;-56
2022/06/13 02:31:58;;;;;;;7.07;3.50;;;;;;;;;;4987937;28;20220;-57
2022/06/13 02:34:29;;;;;;;6.60;3.70;;;;;;;;;;4986651;28;20666;-58
2022/06/13 02:36:54;;;;;;;4.97;3.57;;;;;;;;;;4981786;28;20202;-57
2022/06/13 02:39:20;;;;;;;6.80;3.60;;;;;;;;;;4974364;28;20185;-57
2022/06/13 02:41:48;;;;;;;5.10;3.30;;;;;;;;;;4981596;28;20194;-57
2022/06/13 02:44:33;;;;;;;7.03;3.50;;;;;;;;;;4977570;28;20213;-58
2022/06/13 02:47:00;;;;;;;3.77;2.90;;;;;;;;;;4984387;28;20647;-58
2022/06/13 02:49:26;;;;;;;4.70;3.40;;;;;;;;;;4982566;28;20553;-56
2022/06/13 02:52:01;;;;;;;4.37;3.00;;;;;;;;;;4974504;28;20186;-57
2022/06/13 02:54:30;;;;;;;8.33;3.47;;;;;;;;;;4976289;28;20185;-57
2022/06/13 02:57:23;;;;;;;6.10;4.03;;;;;;;;;;4978501;28;20201;-57
2022/06/13 03:00:08;;;;;;;4.60;3.40;;;;;;;;;;4967939;28;20251;-58
2022/06/13 03:02:53;;;;;;;6.43;3.17;;;;;;;;;;4978550;28;20197;-58
2022/06/13 03:05:37;;;;;;;7.07;3.33;;;;;;;;;;4984651;28;20714;-56
2022/06/13 03:08:22;;;;;;;4.13;3.07;;;;;;;;;;4978978;28;20178;-57
2022/06/13 03:10:54;;;;;;;4.87;3.40;;;;;;;;;;4980013;28;21231;-58
2022/06/13 03:13:31;;;;;;;7.00;3.70;;;;;;;;;;4970645;28;20178;-58
2022/06/13 03:16:02;;;;;;;5.43;3.40;;;;;;;;;;4984710;28;20182;-58
2022/06/13 03:18:28;;;;;;;7.20;3.70;;;;;;;;;;4977147;28;20240;-57
2022/06/13 03:21:04;;;;;;;7.93;4.03;;;;;;;;;;4984735;28;20182;-56
2022/06/13 03:23:33;;;;;;;8.97;3.30;;;;;;;;;;4981178;28;20224;-57
2022/06/13 03:26:00;;;;;;;6.67;3.30;;;;;;;;;;4982493;28;20325;-58
2022/06/13 03:28:27;;;;;;;6.57;3.63;;;;;;;;;;4973314;28;20564;-57
2022/06/13 03:30:56;;;;;;;9.83;3.40;;;;;;;;;;4981099;28;20197;-57
2022/06/13 03:33:42;;;;;;;10.27;3.90;;;;;;;;;;4978947;28;20208;-57
2022/06/13 03:36:08;;;;;;;9.27;3.63;;;;;;;;;;4977492;28;20261;-57
2022/06/13 03:38:54;;;;;;;9.73;3.80;;;;;;;;;;4974727;28;20285;-57
2022/06/13 03:41:21;;;;;;;6.03;3.37;;;;;;;;;;4967484;28;20288;-57
2022/06/13 03:43:48;;;;;;;6.57;3.60;;;;;;;;;;4982035;28;20224;-58
2022/06/13 03:46:19;;;;;;;8.93;3.57;;;;;;;;;;4981038;28;20213;-58
2022/06/13 03:48:48;;;;;;;10.47;3.90;;;;;;;;;;4982951;28;20194;-58
2022/06/13 03:51:15;;;;;;;6.50;3.50;;;;;;;;;;4967598;28;20623;-58
2022/06/13 03:53:48;;;;;;;5.83;3.33;;;;;;;;;;4972580;28;20205;-57
2022/06/13 03:56:17;;;;;;;9.83;3.37;;;;;;;;;;4980363;28;20343;-57
2022/06/13 03:58:45;;;;;;;6.97;3.10;;;;;;;;;;4972838;28;20193;-57
2022/06/13 04:01:12;;;;;;;9.13;4.00;;;;;;;;;;4969996;28;20209;-58
2022/06/13 04:03:38;;;;;;;6.63;3.87;;;;;;;;;;4974112;28;20225;-57
2022/06/13 04:06:05;;;;;;;6.17;4.03;;;;;;;;;;4982190;28;20919;-58
2022/06/13 04:08:32;;;;;;;6.03;3.60;;;;;;;;;;4978626;28;20273;-57
2022/06/13 04:11:16;;;;;;;5.23;3.43;;;;;;;;;;4976271;28;20186;-57
2022/06/13 04:13:51;;;;;;;6.77;3.47;;;;;;;;;;4976026;28;20182;-56
2022/06/13 04:16:33;;;;;;;7.63;3.80;;;;;;;;;;4975673;28;20228;-57
2022/06/13 04:19:03;;;;;;;5.97;3.50;;;;;;;;;;4977249;28;20269;-57
2022/06/13 04:21:35;;;;;;;8.17;3.90;;;;;;;;;;4981182;28;20252;-58
2022/06/13 04:24:01;;;;;;;5.50;3.60;;;;;;;;;;4983707;28;20214;-57
2022/06/13 04:26:27;;;;;;;8.70;3.60;;;;;;;;;;4972340;28;20200;-57
2022/06/13 04:29:00;;;;;;;6.17;3.63;;;;;;;;;;4970050;28;20214;-58
2022/06/13 04:31:26;;;;;;;4.50;3.27;;;;;;;;;;4975664;28;20201;-58
2022/06/13 04:33:59;;;;;;;6.70;3.87;;;;;;;;;;4981669;28;20194;-58
2022/06/13 04:36:25;;;;;;;4.80;3.40;;;;;;;;;;4987448;28;20237;-57
2022/06/13 04:38:52;;;;;;;7.03;3.83;;;;;;;;;;4975772;28;20190;-57
2022/06/13 04:41:18;;;;;;;8.17;3.60;;;;;;;;;;4978616;28;20208;-57
2022/06/13 04:43:45;;;;;;;4.73;3.57;;;;;;;;;;4969947;28;20940;-57
2022/06/13 04:46:13;;;;;;;7.10;3.90;;;;;;;;;;4976745;28;20630;-57
2022/06/13 04:48:39;;;;;;;4.37;3.97;;;;;;;;;;4967149;28;20194;-57
2022/06/13 04:51:07;;;;;;;6.93;4.50;;;;;;;;;;4967711;28;20222;-57
2022/06/13 04:53:45;;;;;;;4.13;3.60;;;;;;;;;;4970526;28;20194;-57
2022/06/13 04:56:11;;;;;;;7.07;3.80;;;;;;;;;;4963733;28;20640;-57
2022/06/13 04:58:38;;;;;;;9.17;4.17;;;;;;;;;;4972355;28;20200;-56
2022/06/13 05:01:10;;;;;;;7.17;3.90;;;;;;;;;;4975446;28;20640;-56
2022/06/13 05:03:37;;;;;;;6.87;3.63;;;;;;;;;;4971995;28;20616;-57
2022/06/13 05:06:05;;;;;;;9.63;4.37;;;;;;;;;;4978873;28;20233;-56
2022/06/13 05:08:32;;;;;;;5.20;3.83;;;;;;;;;;4986502;28;20643;-55
2022/06/13 05:11:04;;;;;;;6.17;3.97;;;;;;;;;;4974125;28;20189;-56
2022/06/13 05:13:29;;;;;;;5.80;3.50;;;;;;;;;;4967117;28;20501;-56
2022/06/13 05:16:00;;;;;;;7.67;3.83;;;;;;;;;;4964201;28;20194;-56
2022/06/13 05:18:29;;;;;;;10.20;4.00;;;;;;;;;;4965252;28;20635;-58
2022/06/13 05:21:11;;;;;;;7.83;4.37;;;;;;;;;;4968405;28;20186;-57
2022/06/13 05:23:37;;;;;;;11.63;4.37;;;;;;;;;;4977185;28;20243;-57
2022/06/13 05:26:03;;;;;;;7.87;3.63;;;;;;;;;;4980445;28;20762;-57
2022/06/13 05:28:30;;;;;;;7.00;4.20;;;;;;;;;;4970492;28;20214;-57
2022/06/13 05:30:57;;;;;;;9.63;5.00;;;;;;;;;;4979851;28;20220;-56
2022/06/13 05:33:23;;;;;;;6.47;4.43;;;;;;;;;;4978770;28;20270;-57
2022/06/13 05:35:52;;;;;;;6.93;4.60;;;;;;;;;;4980487;28;21022;-57
2022/06/13 05:38:19;;;;;;;10.17;5.00;;;;;;;;;;4985816;28;20205;-57
2022/06/13 05:40:45;;;;;;;9.07;4.13;;;;;;;;;;4982493;28;20248;-57
2022/06/13 05:43:11;;;;;;;7.57;4.93;;;;;;;;;;4983398;28;20722;-57
2022/06/13 05:45:38;;;;;;;6.77;3.87;;;;;;;;;;4989882;28;20194;-57
2022/06/13 05:48:04;;;;;;;5.37;3.57;;;;;;;;;;4986327;28;20268;-57
2022/06/13 05:50:32;;;;;;;6.47;3.83;;;;;;;;;;4991247;28;20194;-57
2022/06/13 05:52:58;;;;;;;5.30;3.73;;;;;;;;;;4995476;28;21114;-56
2022/06/13 05:55:24;;;;;;;5.10;3.63;;;;;;;;;;4996685;28;20190;-57
2022/06/13 05:57:50;;;;;;;3.63;3.03;;;;;;;;;;4991826;28;21582;-57
2022/06/13 06:00:19;;;;;;;6.20;4.10;;;;;;;;;;4992701;28;20189;-58
2022/06/13 06:02:45;;;;;;;5.33;3.47;;;;;;;;;;4994261;28;20718;-57
2022/06/13 06:05:11;;;;;;;6.30;3.57;;;;;;;;;;4991150;28;20217;-57
2022/06/13 06:07:37;;;;;;;5.27;3.70;;;;;;;;;;4994713;28;20218;-57
2022/06/13 06:10:04;;;;;;;4.93;3.40;;;;;;;;;;4994932;28;20193;-58
2022/06/13 06:12:30;;;;;;;5.80;3.30;;;;;;;;;;4989594;28;20607;-58
2022/06/13 06:14:56;;;;;;;12.23;3.93;;;;;;;;;;4990322;28;20194;-57
2022/06/13 06:17:22;;;;;;;5.03;3.20;;;;;;;;;;4990493;28;20663;-58
2022/06/13 06:19:48;;;;;;;4.53;3.00;;;;;;;;;;4991994;28;20554;-58
2022/06/13 06:22:13;;;;;;;8.97;4.03;;;;;;;;;;4989378;28;20761;-57
2022/06/13 06:24:40;;;;;;;7.37;3.80;;;;;;;;;;4995663;28;21342;-58
2022/06/13 06:27:06;;;;;;;6.27;3.37;;;;;;;;;;4993038;28;20197;-58
2022/06/13 06:29:31;;;;;;;8.47;4.40;;;;;;;;;;4992943;28;20185;-57
2022/06/13 06:31:57;;;;;;;8.70;3.87;;;;;;;;;;4989282;28;20210;-57
2022/06/13 06:34:23;;;;;;;7.03;4.30;;;;;;;;;;4988249;28;20706;-58
2022/06/13 06:36:49;;;;;;;6.70;3.77;;;;;;;;;;4989410;28;20194;-58
2022/06/13 06:39:15;;;;;;;7.07;4.07;;;;;;;;;;4987914;28;20194;-58
2022/06/13 06:41:42;;;;;;;7.03;4.27;;;;;;;;;;4991745;28;20239;-58
2022/06/13 06:44:08;;;;;;;5.90;4.50;;;;;;;;;;4993632;28;20263;-58
2022/06/13 06:46:34;;;;;;;7.03;3.77;;;;;;;;;;4987406;28;20190;-57
2022/06/13 06:49:00;;;;;;;6.00;3.80;;;;;;;;;;4988978;28;20190;-57
2022/06/13 06:51:29;;;;;;;8.60;4.40;;;;;;;;;;4984199;28;20639;-58
2022/06/13 07:02:09;;;;;;;7.53;3.80;;;;;;;;;;4991331;28;20292;-58
2022/06/13 07:04:34;;;;;;;6.93;4.20;;;;;;;;;;4989515;28;20205;-58
2022/06/13 07:07:00;;;;;;;9.13;4.30;;;;;;;;;;4989512;28;20321;-58
2022/06/13 07:09:26;;;;;;;9.07;4.25;;;;;;;;;;4993001;28;20817;-58
2022/06/13 07:11:56;;;;;;;11.60;4.55;;;;;;;;;;4989542;28;20191;-58
2022/06/13 07:14:22;;;;;;;6.53;4.05;;;;;;;;;;4989065;28;20610;-58
2022/06/13 07:16:48;;;;;;;9.65;4.82;;;;;;;;;;4991917;28;20186;-58
2022/06/13 07:19:14;;;;;;;6.03;4.35;;;;;;;;;;4991435;28;20186;-58
2022/06/13 07:21:40;;;;;;;8.02;4.60;;;;;;;;;;4992741;28;20528;-58
2022/06/13 07:24:06;;;;;;;11.63;5.13;;;;;;;;;;4991051;28;20201;-57
2022/06/13 07:26:32;;;;;;;14.95;4.88;;;;;;;;;;4991709;28;20178;-59
2022/06/13 07:28:58;;;;;;;8.02;4.40;;;;;;;;;;4993250;28;20710;-58
2022/06/13 07:31:28;;;;;;;12.77;5.00;;;;;;;;;;4989606;28;20190;-58
2022/06/13 07:33:54;;;;;;;7.82;5.00;;;;;;;;;;4996312;28;20200;-57
2022/06/13 07:36:20;;;;;;;12.32;5.35;;;;;;;;;;4991792;28;20182;-58
2022/06/13 07:38:47;;;;;;;9.68;5.72;;;;;;;;;;4993950;28;20197;-58
2022/06/13 07:41:15;;;;;;;10.50;5.30;;;;;;;;;;4996840;28;20587;-58
2022/06/13 07:43:43;;;;;;;8.45;5.97;;;;;;;;;;4994443;28;20236;-58
2022/06/13 07:46:09;;;;;;;11.50;6.28;;;;;;;;;;4991522;28;20182;-58
2022/06/13 07:48:35;;;;;;;8.55;5.25;;;;;;;;;;4993057;28;20190;-57
2022/06/13 07:51:02;;;;;;;12.70;5.75;;;;;;;;;;4990255;28;20182;-58
2022/06/13 07:53:28;;;;;;;10.35;5.90;;;;;;;;;;4991040;28;20200;-58
2022/06/13 07:55:54;;;;;;;9.68;5.78;;;;;;;;;;4992540;28;20216;-58
2022/06/13 07:58:21;;;;;;;16.52;5.97;;;;;;;;;;4992050;28;20265;-56
2022/06/13 08:00:49;;;;;;;9.45;5.28;;;;;;;;;;4987410;28;20205;-57
2022/06/13 08:03:19;;;;;;;11.27;5.93;;;;;;;;;;4983717;28;20263;-58
2022/06/13 08:05:45;;;;;;;12.40;6.35;;;;;;;;;;4980291;28;20250;-58
2022/06/13 08:08:11;;;;;;;9.65;5.55;;;;;;;;;;4989033;28;20204;-58
2022/06/13 08:10:37;;;;;;;9.10;6.13;;;;;;;;;;4992911;28;20736;-58
2022/06/13 08:13:04;;;;;;;9.35;5.47;;;;;;;;;;4989945;28;20198;-58
2022/06/13 08:15:29;;;;;;;11.50;6.13;;;;;;;;;;4987745;28;20695;-58
2022/06/13 08:17:55;;;;;;;12.27;5.55;;;;;;;;;;4985427;28;21561;-57
2022/06/13 08:20:23;;;;;;;10.32;5.40;;;;;;;;;;4990121;28;20201;-58
2022/06/13 08:22:49;;;;;;;9.95;5.18;;;;;;;;;;4991898;28;20238;-58
2022/06/13 08:25:19;;;;;;;12.30;5.35;;;;;;;;;;4994589;28;20213;-59
2022/06/13 08:27:45;;;;;;;9.90;5.82;;;;;;;;;;4989328;28;20720;-58
2022/06/13 08:30:11;;;;;;;6.80;4.88;;;;;;;;;;4991436;28;20190;-58
2022/06/13 08:32:37;;;;;;;10.43;5.28;;;;;;;;;;4991195;28;20585;-58
2022/06/13 08:35:03;;;;;;;11.68;5.28;;;;;;;;;;4990089;28;20190;-59
2022/06/13 08:37:29;;;;;;;11.27;5.50;;;;;;;;;;4989967;28;20194;-57
2022/06/13 08:39:55;;;;;;;8.73;4.78;;;;;;;;;;4991920;28;20643;-57
2022/06/13 08:42:24;;;;;;;8.35;4.57;;;;;;;;;;4990672;28;20669;-58
2022/06/13 08:44:53;;;;;;;9.48;4.75;;;;;;;;;;4986841;28;20558;-58
2022/06/13 08:47:30;;;;;;;11.15;4.45;;;;;;;;;;4989770;28;20595;-58
2022/06/13 08:50:02;;;;;;;8.60;4.32;;;;;;;;;;4995968;28;20247;-58
2022/06/13 08:52:31;;;;;;;9.52;4.38;;;;;;;;;;4989923;28;20664;-58
2022/06/13 08:55:03;;;;;;;8.63;4.00;;;;;;;;;;4983956;28;20194;-58
2022/06/13 08:57:30;;;;;;;8.05;4.50;;;;;;;;;;4989916;28;20189;-58
2022/06/13 08:59:58;;;;;;;4.88;4.13;;;;;;;;;;4987858;28;20205;-57
2022/06/13 09:02:28;;;;;;;6.45;4.53;;;;;;;;;;4986495;28;20198;-57
2022/06/13 09:04:54;;;;;;;7.80;4.20;;;;;;;;;;4990208;28;20576;-57
2022/06/13 09:07:22;;;;;;;7.95;4.03;;;;;;;;;;4991234;28;20225;-58
2022/06/13 09:09:59;;;;;;;7.10;4.50;;;;;;;;;;4989370;28;20186;-58
2022/06/13 09:12:28;;;;;;;7.63;3.97;;;;;;;;;;4987120;28;20762;-59
2022/06/13 09:15:10;;;;;;;7.40;4.20;;;;;;;;;;4981298;28;20190;-58
2022/06/13 09:17:38;;;;;;;6.72;4.30;;;;;;;;;;4990287;28;20189;-58
2022/06/13 09:20:07;;;;;;;7.22;4.25;;;;;;;;;;4992288;28;20182;-57
2022/06/13 09:22:39;;;;;;;7.85;4.05;;;;;;;;;;4992070;28;20216;-58
2022/06/13 09:25:26;;;;;;;5.43;3.85;;;;;;;;;;4990729;28;20344;-58
2022/06/13 09:28:02;;;;;;;5.70;4.00;;;;;;;;;;4987313;28;20211;-58
2022/06/13 09:30:33;;;;;;;7.50;3.97;;;;;;;;;;4987667;28;20686;-58
2022/06/13 09:33:00;;;;;;;6.90;4.25;;;;;;;;;;4991469;28;20640;-58
2022/06/13 09:35:31;;;;;;;7.00;3.90;;;;;;;;;;4987134;28;20228;-58
2022/06/13 09:37:57;;;;;;;7.55;3.88;;;;;;;;;;4990187;28;20189;-58
2022/06/13 09:40:26;;;;;;;6.70;4.13;;;;;;;;;;4989382;28;20185;-58
2022/06/13 09:43:03;;;;;;;7.13;4.22;;;;;;;;;;4988275;28;20178;-58
2022/06/13 09:45:35;;;;;;;7.88;3.80;;;;;;;;;;4985823;28;20588;-58
2022/06/13 09:48:04;;;;;;;6.93;4.10;;;;;;;;;;4990219;28;20657;-58
2022/06/13 09:50:35;;;;;;;7.25;4.13;;;;;;;;;;4988756;28;20280;-58
2022/06/13 09:53:04;;;;;;;6.68;3.75;;;;;;;;;;4984651;28;20205;-57
2022/06/13 09:55:33;;;;;;;8.20;3.75;;;;;;;;;;4980816;28;21064;-58
2022/06/13 09:58:18;;;;;;;7.30;4.05;;;;;;;;;;4985269;28;20221;-59
2022/06/13 10:00:44;;;;;;;6.25;3.90;;;;;;;;;;4982259;28;20186;-58
2022/06/13 10:03:33;;;;;;;9.75;4.28;;;;;;;;;;4975700;28;20799;-58
2022/06/13 10:06:01;;;;;;;5.65;4.07;;;;;;;;;;4968352;28;20317;-58
2022/06/13 10:08:30;;;;;;;6.78;3.72;;;;;;;;;;4983987;28;20194;-58
2022/06/13 10:11:05;;;;;;;6.82;3.72;;;;;;;;;;4982047;28;20873;-58
2022/06/13 10:13:40;;;;;;;5.47;3.65;;;;;;;;;;4979007;28;20204;-58
2022/06/13 10:16:12;;;;;;;7.90;3.60;;;;;;;;;;4986460;28;20213;-59
2022/06/13 10:18:41;;;;;;;8.13;3.53;;;;;;;;;;4992397;28;20787;-58
2022/06/13 10:21:14;;;;;;;5.50;3.90;;;;;;;;;;4986964;28;20925;-58
2022/06/13 10:23:39;;;;;;;6.15;3.20;;;;;;;;;;4991190;28;20558;-58
2022/06/13 10:26:16;;;;;;;5.20;3.20;;;;;;;;;;4990141;28;20185;-58
2022/06/13 10:28:45;;;;;;;6.00;3.42;;;;;;;;;;4989567;28;20628;-58
2022/06/13 10:31:11;;;;;;;5.32;3.33;;;;;;;;;;4990537;28;20690;-59
2022/06/13 10:33:43;;;;;;;4.00;2.83;;;;;;;;;;4990402;28;20192;-59
2022/06/13 10:36:16;;;;;;;6.78;2.88;;;;;;;;;;4988201;28;20186;-58
2022/06/13 10:38:52;;;;;;;5.00;2.55;;;;;;;;;;4990381;28;20325;-57
2022/06/13 10:41:18;;;;;;;5.03;2.72;;;;;;;;;;4992431;28;20197;-58
2022/06/13 10:43:44;;;;;;;5.47;2.70;;;;;;;;;;4994373;28;20186;-58
2022/06/13 10:46:14;;;;;;;5.22;2.95;;;;;;;;;;4996231;28;20233;-57
2022/06/13 10:48:46;;;;;;;3.88;2.75;;;;;;;;;;4993948;28;20183;-57
2022/06/13 10:51:12;;;;;;;6.68;2.78;;;;;;;;;;4994265;28;20248;-57
2022/06/13 10:53:59;;;;;;;7.15;2.95;;;;;;;;;;4993688;28;20593;-59
2022/06/13 10:56:36;;;;;;;6.07;2.50;;;;;;;;;;4989953;28;20259;-58
2022/06/13 10:59:02;;;;;;;3.95;2.20;;;;;;;;;;4995541;28;20640;-59
2022/06/13 11:01:31;;;;;;;4.63;2.53;;;;;;;;;;4994674;28;20195;-58
2022/06/13 11:04:00;;;;;;;6.85;2.40;;;;;;;;;;4991838;28;20640;-58
2022/06/13 11:06:38;;;;;;;4.82;2.10;;;;;;;;;;4989396;28;20234;-58
2022/06/13 11:09:05;;;;;;;7.28;2.65;;;;;;;;;;4990525;28;20377;-59
2022/06/13 11:11:35;;;;;;;5.45;2.83;;;;;;;;;;4993843;28;20189;-58
2022/06/13 11:14:01;;;;;;;4.20;2.35;;;;;;;;;;4990410;28;20195;-56
2022/06/13 11:22:43;;;;;;;3.85;2.30;;;;;;;;;;4987415;28;20244;-58
2022/06/13 11:25:16;;;;;;;5.38;2.90;;;;;;;;;;4989859;28;20745;-56
2022/06/13 11:27:42;;;;;;;4.05;2.50;;;;;;;;;;4986107;28;22498;-58
2022/06/13 11:30:17;;;;;;;5.65;2.17;;;;;;;;;;4980842;28;20685;-58
2022/06/13 11:32:51;;;;;;;4.68;2.53;;;;;;;;;;4986753;28;20212;-58
2022/06/13 11:35:27;;;;;;;6.50;2.70;;;;;;;;;;4988210;28;20273;-57
2022/06/13 11:37:53;;;;;;;6.40;2.30;;;;;;;;;;4986611;28;20555;-59
2022/06/13 11:40:25;;;;;;;6.00;2.72;;;;;;;;;;4970422;28;20414;-57
2022/06/13 11:42:51;;;;;;;5.20;2.90;;;;;;;;;;4986894;28;20221;-58
2022/06/13 11:45:22;;;;;;;9.25;3.40;;;;;;;;;;4989178;28;20217;-57
2022/06/13 11:47:52;;;;;;;5.53;2.60;;;;;;;;;;4980594;28;20702;-58
2022/06/13 11:50:22;;;;;;;5.95;3.03;;;;;;;;;;4983285;28;20181;-59
2022/06/13 11:55:32;;;;;;;5.78;2.97;;;;;;;;;;4992467;28;20197;-57
2022/06/13 11:57:59;;;;;;;8.88;3.00;;;;;;;;;;4985803;28;20193;-57
2022/06/13 12:00:35;;;;;;;6.28;2.80;;;;;;;;;;4986755;28;20198;-58
2022/06/13 12:03:24;;;;;;;10.15;3.55;;;;;;;;;;4981103;28;20406;-57
2022/06/13 12:05:54;;;;;;;4.85;3.00;;;;;;;;;;4979309;28;20238;-58
2022/06/13 12:08:25;;;;;;;5.28;3.70;;;;;;;;;;4993453;28;20233;-57
2022/06/13 12:11:07;;;;;;;6.50;3.88;;;;;;;;;;4985166;28;20787;-57
2022/06/13 12:13:34;;;;;;;6.43;3.60;;;;;;;;;;4979735;28;20202;-57
2022/06/13 12:16:02;;;;;;;5.53;3.60;;;;;;;;;;4987791;28;20186;-57
2022/06/13 12:18:34;;;;;;;3.90;3.28;;;;;;;;;;4991046;28;20194;-54
2022/06/13 12:21:09;;;;;;;17.48;3.92;;;;;;;;;;4980441;28;20535;-57
2022/06/13 12:23:42;;;;;;;8.85;4.18;;;;;;;;;;4982582;28;20766;-56
2022/06/13 12:26:18;;;;;;;12.85;3.63;;;;;;;;;;4981593;28;20229;-56
2022/06/13 12:28:50;;;;;;;9.55;3.80;;;;;;;;;;4974987;28;20674;-56
2022/06/13 12:31:16;;;;;;;8.48;3.47;;;;;;;;;;4985872;28;20647;-57
2022/06/13 12:33:42;;;;;;;9.52;3.28;;;;;;;;;;4992667;28;20178;-57
2022/06/13 12:36:08;;;;;;;4.53;3.50;;;;;;;;;;4986219;28;20199;-58
2022/06/13 12:38:43;;;;;;;6.07;3.30;;;;;;;;;;4987568;28;20353;-56
2022/06/13 12:41:09;;;;;;;6.65;2.92;;;;;;;;;;4987040;28;20185;-58
2022/06/13 12:43:54;;;;;;;4.72;3.80;;;;;;;;;;4986811;28;20186;-58
2022/06/13 12:46:24;;;;;;;9.52;3.58;;;;;;;;;;4980619;28;20182;-55
2022/06/13 12:48:53;;;;;;;4.35;3.38;;;;;;;;;;4986768;28;20192;-58
2022/06/13 12:51:26;;;;;;;4.80;3.17;;;;;;;;;;4982948;28;20189;-60
2022/06/13 12:54:07;;;;;;;5.20;2.95;;;;;;;;;;4978487;28;20196;-60
2022/06/13 12:56:52;;;;;;;4.80;3.00;;;;;;;;;;4978173;28;20271;-60
2022/06/13 12:59:27;;;;;;;4.72;2.60;;;;;;;;;;4985446;28;20197;-60
2022/06/13 13:02:11;;;;;;;4.18;2.63;;;;;;;;;;4988075;28;20226;-60
2022/06/13 13:04:38;;;;;;;2.33;2.13;;;;;;;;;;4985834;28;20690;-60
2022/06/13 13:07:16;;;;;;;3.53;2.20;;;;;;;;;;4984934;28;20329;-59
2022/06/13 13:10:01;;;;;;;5.70;2.10;;;;;;;;;;4985636;28;20840;-61
2022/06/13 13:12:27;;;;;;;5.47;2.30;;;;;;;;;;4983105;28;20181;-60
2022/06/13 13:14:53;;;;;;;3.72;1.98;;;;;;;;;;4986057;28;20194;-60
2022/06/13 13:17:22;;;;;;;4.78;2.30;;;;;;;;;;4985641;28;20199;-58
2022/06/13 13:19:54;;;;;;;5.38;1.98;;;;;;;;;;4980534;28;20268;-58
2022/06/13 13:22:22;;;;;;;3.55;2.15;;;;;;;;;;4987921;28;20194;-58
2022/06/13 13:24:48;;;;;;;4.72;2.67;;;;;;;;;;4987663;28;20217;-59
2022/06/13 13:27:15;;;;;;;3.60;2.83;;;;;;;;;;4984021;28;20210;-58
2022/06/13 13:29:47;;;;;;;3.65;3.22;;;;;;;;;;4981366;28;20197;-58
2022/06/13 13:32:25;;;;;;;3.63;3.33;;;;;;;;;;4990878;28;20250;-57
2022/06/13 13:35:05;;;;;;;5.38;3.25;;;;;;;;;;4976030;28;20315;-58
2022/06/13 13:37:31;;;;;;;4.25;3.53;;;;;;;;;;4996480;28;20623;-57
2022/06/13 13:39:58;;;;;;;3.70;3.35;;;;;;;;;;4985228;28;20198;-58
2022/06/13 13:42:45;;;;;;;4.53;3.00;;;;;;;;;;4984522;28;20197;-58
2022/06/13 13:45:33;;;;;;;3.80;2.97;;;;;;;;;;4984030;28;20609;-58
2022/06/13 13:48:02;;;;;;;17.08;4.85;;;;;;;;;;4984898;28;20265;-58
2022/06/13 13:50:29;;;;;;;4.15;3.35;;;;;;;;;;4980032;28;20547;-58
2022/06/13 13:52:58;;;;;;;12.30;5.82;;;;;;;;;;4980148;28;20193;-58
2022/06/13 13:55:27;;;;;;;3.28;2.97;;;;;;;;;;4959150;28;20190;-59
2022/06/13 13:57:58;;;;;;;4.10;3.10;;;;;;;;;;4969185;28;20678;-59
2022/06/13 14:00:38;;;;;;;3.97;2.95;;;;;;;;;;4976400;28;20789;-57
2022/06/13 14:03:15;;;;;;;5.15;3.10;;;;;;;;;;4985612;28;20221;-57
2022/06/13 14:05:44;;;;;;;4.13;2.92;;;;;;;;;;4960761;28;20604;-58
2022/06/13 14:08:11;;;;;;;4.38;2.92;;;;;;;;;;4991683;28;20242;-57
2022/06/13 14:10:40;;;;;;;3.70;2.63;;;;;;;;;;4988853;28;20182;-57
2022/06/13 14:13:13;;;;;;;4.57;2.78;;;;;;;;;;4989672;28;20225;-58
2022/06/13 14:15:52;;;;;;;4.43;2.70;;;;;;;;;;4993009;28;20187;-58
2022/06/13 14:18:33;;;;;;;2.80;2.50;;;;;;;;;;4992007;28;20196;-56
2022/06/13 14:21:05;;;;;;;10.95;4.15;;;;;;;;;;4991758;28;20193;-57
2022/06/13 14:23:32;;;;;;;3.75;3.10;;;;;;;;;;4988141;28;20209;-57
2022/06/13 14:25:58;;;;;;;2.83;2.53;;;;;;;;;;4990966;28;20775;-57
2022/06/13 14:28:24;;;;;;;3.67;3.20;;;;;;;;;;4982394;28;20336;-57
2022/06/13 14:31:06;;;;;;;3.53;2.80;;;;;;;;;;4988448;28;20265;-57
2022/06/13 14:37:02;;;;;;;2.60;2.40;;;;;;;;;;4987535;28;20196;-58
2022/06/13 14:39:28;;;;;;;4.63;2.67;;;;;;;;;;4973772;28;20790;-57
2022/06/13 14:42:00;;;;;;;2.85;2.53;;;;;;;;;;4991316;28;20186;-57
2022/06/13 14:44:46;;;;;;;3.97;2.70;;;;;;;;;;4990632;28;20789;-58
2022/06/13 14:47:14;;;;;;;4.22;2.70;;;;;;;;;;4995464;28;20593;-57
2022/06/13 14:49:46;;;;;;;3.88;2.60;;;;;;;;;;4995682;28;20182;-58
2022/06/13 14:52:16;;;;;;;4.15;2.63;;;;;;;;;;4988727;28;22495;-56
2022/06/13 14:55:01;;;;;;;3.22;2.40;;;;;;;;;;4991529;28;20686;-56
2022/06/13 14:57:27;;;;;;;2.83;2.38;;;;;;;;;;4992000;28;20216;-57
2022/06/13 15:00:05;;;;;;;2.53;2.33;;;;;;;;;;4988563;28;20216;-58
2022/06/13 15:02:34;;;;;;;5.45;2.80;;;;;;;;;;4987462;28;20179;-58
2022/06/13 15:05:02;;;;;;;2.67;2.42;;;;;;;;;;4990488;28;20237;-58
2022/06/13 15:07:32;;;;;;;3.90;2.50;;;;;;;;;;4991194;28;20738;-58
2022/06/13 15:10:04;;;;;;;2.88;2.30;;;;;;;;;;4984816;28;20186;-57
2022/06/13 15:12:31;;;;;;;2.40;2.20;;;;;;;;;;4989853;28;20845;-56
2022/06/13 15:15:01;;;;;;;3.65;2.60;;;;;;;;;;4982671;28;20197;-57
2022/06/13 15:17:27;;;;;;;5.93;2.60;;;;;;;;;;4991885;28;20192;-58